Time;durP1;ratioP1;P1;durP2;ratioP2;P2;SDS_P1;SDS_P2;PMS_P1;PMS_P2;Temp;Humidity;BMP_temperature;BMP_pressure;BME280_temperature;BME280_humidity;BME280_pressure;Samples;Min_cycle;Max_cycle;Signal;HPM_P1;HPM_P2
2023/02/23 00:01:20;;;;;;;16.40;10.25;;;;;;;9.79;51.12;99477.59;5011055;28;20087;-83
2023/02/23 00:03:48;;;;;;;14.05;9.45;;;;;;;9.77;51.49;99488.31;5011156;28;20033;-83
2023/02/23 00:06:14;;;;;;;17.92;10.68;;;;;;;9.37;51.32;99409.44;5011048;28;20392;-84
2023/02/23 00:08:40;;;;;;;14.00;9.68;;;;;;;9.33;51.08;99416.06;5012360;28;20025;-82
2023/02/23 00:11:10;;;;;;;13.48;9.02;;;;;;;10.07;51.66;99526.19;5012245;28;20042;-83
2023/02/23 00:13:37;;;;;;;15.60;9.95;;;;;;;10.08;51.23;99527.00;5011064;28;20068;-83
2023/02/23 00:16:13;;;;;;;16.95;9.55;;;;;;;9.74;52.65;99512.38;5012233;28;20095;-83
2023/02/23 00:18:49;;;;;;;11.48;8.65;;;;;;;9.94;52.05;99533.03;5012046;28;20414;-83
2023/02/23 00:21:34;;;;;;;15.82;10.15;;;;;;;9.85;52.58;99522.53;5009911;28;20025;-83
2023/02/23 00:24:02;;;;;;;15.70;10.50;;;;;;;9.84;52.49;99522.72;5011842;28;20437;-82
2023/02/23 00:26:32;;;;;;;15.25;10.82;;;;;;;9.70;52.28;99521.63;5011778;28;20021;-83
2023/02/23 00:28:59;;;;;;;18.58;10.75;;;;;;;9.66;52.34;99528.25;5010543;28;20115;-82
2023/02/23 00:31:25;;;;;;;16.15;9.27;;;;;;;9.74;52.11;99530.03;5011800;28;20033;-83
2023/02/23 00:33:58;;;;;;;11.13;8.65;;;;;;;9.49;52.43;99490.56;5012737;28;20049;-83
2023/02/23 00:36:27;;;;;;;13.13;9.07;;;;;;;9.14;52.23;99428.66;5011908;28;20607;-83
2023/02/23 00:38:59;;;;;;;11.80;8.85;;;;;;;9.79;52.14;99528.50;5011849;28;20520;-83
2023/02/23 00:41:27;;;;;;;12.98;8.50;;;;;;;9.41;52.18;99469.53;5010614;28;20030;-84
2023/02/23 00:43:58;;;;;;;11.20;7.95;;;;;;;9.76;52.20;99523.56;5010391;28;20487;-83
2023/02/23 00:46:26;;;;;;;13.00;8.60;;;;;;;8.99;52.37;99424.28;5010347;28;20172;-83
2023/02/23 00:48:54;;;;;;;12.23;8.20;;;;;;;9.70;52.49;99524.28;5011744;28;20033;-83
2023/02/23 00:51:20;;;;;;;12.50;7.75;;;;;;;9.71;52.25;99522.47;5011811;28;20494;-83
2023/02/23 00:53:46;;;;;;;13.60;7.97;;;;;;;9.47;52.13;99486.47;5011580;28;20026;-83
2023/02/23 00:56:14;;;;;;;11.77;7.25;;;;;;;9.67;52.18;99518.53;5011398;28;20026;-82
2023/02/23 00:58:40;;;;;;;10.13;7.78;;;;;;;9.65;52.17;99517.84;5011597;28;20487;-82
2023/02/23 01:01:07;;;;;;;9.82;6.95;;;;;;;8.77;52.15;99387.16;5011568;28;20037;-82
2023/02/23 01:03:33;;;;;;;13.98;8.73;;;;;;;9.60;52.16;99520.19;5011566;28;20053;-83
2023/02/23 01:06:04;;;;;;;11.63;7.68;;;;;;;9.36;52.42;99497.38;5011578;28;20430;-84
2023/02/23 01:08:30;;;;;;;12.55;8.50;;;;;;;9.44;52.34;99515.81;5011427;28;20490;-84
2023/02/23 01:10:56;;;;;;;10.38;6.88;;;;;;;8.71;52.48;99419.41;5010169;28;20037;-84
2023/02/23 01:13:23;;;;;;;12.35;7.82;;;;;;;8.69;52.01;99395.06;5010266;28;20483;-83
2023/02/23 01:15:49;;;;;;;12.40;8.10;;;;;;;9.35;52.32;99516.81;5010072;28;20026;-83
2023/02/23 01:18:19;;;;;;;15.45;8.98;;;;;;;9.46;52.60;99530.44;5011531;28;20092;-83
2023/02/23 01:20:45;;;;;;;12.02;8.07;;;;;;;9.43;52.16;99528.16;5011175;28;20022;-83
2023/02/23 01:23:13;;;;;;;10.60;7.22;;;;;;;9.42;52.44;99526.50;5011124;28;20604;-82
2023/02/23 01:25:41;;;;;;;13.98;7.97;;;;;;;9.41;52.62;99524.88;5010090;28;20510;-83
2023/02/23 01:28:10;;;;;;;10.18;7.20;;;;;;;9.31;52.82;99518.97;5010065;28;20495;-83
2023/02/23 01:30:35;;;;;;;11.88;7.85;;;;;;;9.04;52.07;99477.25;5010084;28;20033;-84
2023/02/23 01:33:01;;;;;;;15.32;8.45;;;;;;;9.42;52.26;99550.22;5012546;28;20030;-83
2023/02/23 01:35:27;;;;;;;12.63;8.02;;;;;;;9.48;52.11;99525.81;5013718;28;20030;-84
2023/02/23 01:37:52;;;;;;;12.55;7.97;;;;;;;8.82;52.15;99418.22;5015074;28;20491;-83
2023/02/23 01:40:29;;;;;;;10.52;7.38;;;;;;;9.54;52.09;99530.41;5014771;28;20030;-83
2023/02/23 01:43:10;;;;;;;13.85;7.85;;;;;;;8.13;52.34;99304.75;5014944;28;20112;-83
2023/02/23 01:45:39;;;;;;;9.85;6.82;;;;;;;8.47;52.54;99369.47;5014981;28;20503;-83
2023/02/23 01:48:14;;;;;;;12.13;8.00;;;;;;;9.47;53.09;99533.91;5014966;28;20034;-83
2023/02/23 01:50:47;;;;;;;11.93;8.13;;;;;;;9.39;52.68;99528.66;5014781;28;20101;-84
2023/02/23 01:53:13;;;;;;;10.70;6.90;;;;;;;9.48;52.78;99532.91;5014852;28;20029;-83
2023/02/23 01:55:39;;;;;;;12.13;6.60;;;;;;;9.19;53.06;99475.56;5014579;28;20033;-82
2023/02/23 01:58:18;;;;;;;12.65;8.43;;;;;;;8.65;52.88;99414.00;5013439;28;20034;-83
2023/02/23 02:00:48;;;;;;;10.45;7.47;;;;;;;8.88;53.16;99431.53;5013594;28;20025;-84
2023/02/23 02:03:32;;;;;;;12.18;6.65;;;;;;;9.20;53.70;99488.56;5014635;28;20115;-83
2023/02/23 02:06:00;;;;;;;13.32;7.30;;;;;;;9.42;53.18;99542.31;5014405;28;20029;-83
2023/02/23 02:08:28;;;;;;;9.90;6.65;;;;;;;8.99;53.27;99466.41;5014948;28;20026;-83
2023/02/23 02:10:56;;;;;;;10.82;7.13;;;;;;;9.14;53.51;99491.06;5014275;28;20022;-83
2023/02/23 02:13:29;;;;;;;16.85;7.40;;;;;;;9.42;54.49;99544.13;5014445;28;20033;-83
2023/02/23 02:16:16;;;;;;;11.00;7.10;;;;;;;9.39;53.94;99547.13;5014433;28;20101;-83
2023/02/23 02:19:18;;;;;;;14.70;7.80;;;;;;;8.84;54.58;99487.31;5014633;28;20410;-83
2023/02/23 02:21:43;;;;;;;9.65;7.57;;;;;;;9.32;53.95;99549.59;5014161;28;20412;-83
2023/02/23 02:24:33;;;;;;;13.68;7.78;;;;;;;9.34;53.64;99552.06;5014151;28;20037;-84
2023/02/23 02:27:16;;;;;;;13.23;8.40;;;;;;;8.98;53.48;99491.94;5014172;28;20058;-83
2023/02/23 02:30:00;;;;;;;14.23;7.85;;;;;;;9.37;53.38;99546.47;5014259;28;20034;-83
2023/02/23 02:32:46;;;;;;;16.42;8.13;;;;;;;9.35;53.45;99554.53;5012816;28;20033;-83
2023/02/23 02:35:47;;;;;;;12.80;7.68;;;;;;;9.33;53.22;99559.16;5012866;28;20040;-83
2023/02/23 02:38:41;;;;;;;10.55;7.60;;;;;;;8.77;53.84;99487.19;5013850;28;20026;-83
2023/02/23 02:41:19;;;;;;;9.65;6.28;;;;;;;8.15;53.68;99407.94;4999201;28;20042;-83
2023/02/23 02:44:15;;;;;;;13.25;6.85;;;;;;;8.05;53.56;99409.09;5011396;28;20030;-83
2023/02/23 02:46:46;;;;;;;8.05;6.53;;;;;;;9.04;54.00;99558.91;5011365;28;20103;-82
2023/02/23 02:49:41;;;;;;;10.83;6.20;;;;;;;8.44;53.90;99470.63;5013732;28;20030;-82
2023/02/23 02:52:19;;;;;;;12.25;7.05;;;;;;;9.03;53.41;99559.91;5012257;28;20026;-84
2023/02/23 02:54:52;;;;;;;12.82;7.40;;;;;;;8.48;53.76;99492.97;5013529;28;20483;-82
2023/02/23 02:57:19;;;;;;;8.05;6.15;;;;;;;7.76;53.61;99380.69;5013543;28;20033;-83
2023/02/23 04:18:14;;;;;;;11.10;7.97;;;;;;;8.97;53.44;99592.16;5012370;28;20025;-82
2023/02/23 04:20:40;;;;;;;11.48;8.13;;;;;;;8.98;53.49;99597.25;5010785;28;20487;-83
2023/02/23 04:23:05;;;;;;;15.38;9.98;;;;;;;8.58;53.59;99527.84;5011912;28;20116;-84
2023/02/23 04:25:31;;;;;;;17.92;10.70;;;;;;;8.23;53.66;99492.13;5010833;28;20124;-83
2023/02/23 04:27:56;;;;;;;17.45;9.23;;;;;;;8.44;53.25;99525.06;5012114;28;20036;-84
2023/02/23 04:30:27;;;;;;;13.77;9.10;;;;;;;8.97;53.34;99598.25;5011981;28;20030;-83
2023/02/23 04:32:53;;;;;;;13.82;9.57;;;;;;;8.19;53.91;99487.38;5010851;28;20036;-83
2023/02/23 04:35:19;;;;;;;11.75;8.68;;;;;;;8.73;53.91;99580.63;5011809;28;20100;-83
2023/02/23 04:37:44;;;;;;;14.25;9.75;;;;;;;8.01;53.93;99474.34;5011824;28;20498;-84
2023/02/23 04:40:10;;;;;;;12.35;8.55;;;;;;;8.33;53.87;99535.88;5011074;28;20091;-83
2023/02/23 04:42:38;;;;;;;9.45;7.45;;;;;;;8.49;54.07;99552.50;5011852;28;20030;-84
2023/02/23 04:45:05;;;;;;;12.05;9.73;;;;;;;7.94;53.81;99484.69;5011770;28;20026;-84
2023/02/23 04:47:30;;;;;;;14.32;9.82;;;;;;;7.78;54.54;99489.94;5010485;28;20055;-84
2023/02/23 04:49:55;;;;;;;14.82;12.88;;;;;;;7.79;54.34;99532.78;5011800;28;20079;-84
2023/02/23 04:52:21;;;;;;;14.00;10.57;;;;;;;7.59;54.19;99466.56;5013698;28;20525;-83
2023/02/23 04:54:47;;;;;;;13.98;9.60;;;;;;;7.78;54.35;99475.97;5010476;28;20029;-84
2023/02/23 04:57:12;;;;;;;17.95;11.95;;;;;;;7.97;54.61;99515.91;5010278;28;20037;-82
2023/02/23 04:59:37;;;;;;;14.88;9.95;;;;;;;8.02;54.98;99511.97;5010214;28;20025;-84
2023/02/23 05:02:03;;;;;;;20.02;13.73;;;;;;;8.34;54.45;99580.47;5011452;28;20045;-84
2023/02/23 05:04:28;;;;;;;20.05;13.93;;;;;;;8.14;54.53;99532.53;5011539;28;20422;-84
2023/02/23 05:06:54;;;;;;;24.20;15.43;;;;;;;8.28;54.37;99552.97;5012207;28;20085;-84
2023/02/23 05:09:19;;;;;;;21.95;13.43;;;;;;;7.52;54.57;99457.69;5014402;28;20088;-84
2023/02/23 05:11:45;;;;;;;20.33;13.15;;;;;;;8.53;54.42;99582.78;5014216;28;20037;-84
2023/02/23 05:14:11;;;;;;;17.98;11.13;;;;;;;8.62;54.66;99614.34;5014587;28;20037;-83
2023/02/23 05:16:37;;;;;;;21.33;13.15;;;;;;;8.71;54.29;99618.63;5015301;28;20093;-83
2023/02/23 05:19:03;;;;;;;16.48;10.70;;;;;;;8.31;54.15;99551.00;5015453;28;20109;-83
2023/02/23 05:21:28;;;;;;;11.23;8.25;;;;;;;8.41;54.14;99552.50;5015181;28;20109;-82
2023/02/23 05:23:53;;;;;;;13.43;7.38;;;;;;;8.52;54.50;99586.38;5015190;28;20044;-83
2023/02/23 05:26:19;;;;;;;12.73;7.13;;;;;;;8.78;54.74;99625.72;5015179;28;20026;-82
2023/02/23 05:28:44;;;;;;;12.57;7.65;;;;;;;8.25;54.68;99553.28;5013909;28;20030;-83
2023/02/23 05:31:10;;;;;;;10.88;6.93;;;;;;;8.39;55.17;99566.81;5015175;28;20101;-83
2023/02/23 05:33:44;;;;;;;13.45;7.78;;;;;;;8.41;55.50;99581.44;5015109;28;20083;-83
2023/02/23 05:36:12;;;;;;;12.50;8.60;;;;;;;8.79;55.57;99645.78;5013648;28;20060;-83
2023/02/23 05:38:38;;;;;;;14.75;8.50;;;;;;;7.89;55.65;99497.50;5013706;28;20022;-83
2023/02/23 05:41:09;;;;;;;14.65;9.32;;;;;;;8.06;56.18;99537.78;5015043;28;20026;-83
2023/02/23 05:43:34;;;;;;;19.92;10.85;;;;;;;8.75;56.49;99668.16;5014973;28;20033;-83
2023/02/23 05:46:00;;;;;;;16.27;10.20;;;;;;;8.31;56.87;99616.75;5014937;28;20026;-82
2023/02/23 05:48:27;;;;;;;20.27;11.10;;;;;;;8.07;57.19;99567.53;5013518;28;20036;-83
2023/02/23 05:50:52;;;;;;;18.45;11.40;;;;;;;8.72;57.17;99684.28;5015045;28;20026;-82
2023/02/23 05:53:18;;;;;;;18.20;11.15;;;;;;;8.64;57.30;99649.22;5014723;28;20025;-82
2023/02/23 05:55:44;;;;;;;18.48;10.82;;;;;;;7.01;57.32;99401.69;5014723;28;20026;-83
2023/02/23 05:58:09;;;;;;;19.92;11.65;;;;;;;8.51;57.52;99639.19;5014674;28;20033;-82
2023/02/23 06:00:34;;;;;;;22.63;11.98;;;;;;;8.17;58.02;99615.53;5014598;28;20030;-83
2023/02/23 06:03:00;;;;;;;15.60;10.80;;;;;;;6.60;58.27;99396.25;5001983;28;20030;-83
2023/02/23 06:05:27;;;;;;;17.00;10.40;;;;;;;7.57;58.22;99476.41;4987819;28;20023;-83
2023/02/23 06:07:52;;;;;;;16.00;10.20;;;;;;;8.84;58.10;99696.13;4979927;28;20026;-83
2023/02/23 06:10:18;;;;;;;17.15;10.60;;;;;;;8.31;58.21;99649.16;4997019;28;20041;-82
2023/02/23 06:12:43;;;;;;;19.30;12.50;;;;;;;8.78;58.10;99698.59;4994814;28;20058;-83
2023/02/23 06:15:09;;;;;;;20.00;11.93;;;;;;;7.82;59.30;99582.41;4994240;28;20030;-82
2023/02/23 06:17:35;;;;;;;18.52;12.38;;;;;;;7.06;58.84;99464.22;4994526;28;20105;-82
2023/02/23 06:20:03;;;;;;;20.95;12.68;;;;;;;7.71;59.32;99583.53;4993259;28;20496;-83
2023/02/23 06:22:29;;;;;;;17.02;11.38;;;;;;;8.59;59.44;99718.16;4992943;28;20046;-82
2023/02/23 06:24:55;;;;;;;17.63;11.32;;;;;;;8.57;58.84;99715.69;4994451;28;20070;-83
2023/02/23 06:27:21;;;;;;;15.75;9.93;;;;;;;8.31;59.08;99664.09;4994611;28;20026;-83
2023/02/23 06:29:46;;;;;;;16.20;10.63;;;;;;;8.70;58.82;99727.53;4994599;28;20423;-82
2023/02/23 06:32:12;;;;;;;21.52;13.10;;;;;;;7.76;59.41;99565.47;4994450;28;20042;-81
2023/02/23 06:34:38;;;;;;;19.52;13.80;;;;;;;7.90;58.72;99591.16;4994290;28;20032;-83
2023/02/23 06:37:05;;;;;;;18.45;11.82;;;;;;;8.64;59.05;99710.59;4992899;28;20048;-82
2023/02/23 06:39:30;;;;;;;16.00;10.57;;;;;;;8.39;58.59;99664.16;4992975;28;20026;-81
2023/02/23 06:41:56;;;;;;;21.15;13.43;;;;;;;8.47;58.75;99683.41;4994094;28;20422;-83
2023/02/23 06:44:22;;;;;;;16.63;11.20;;;;;;;8.60;58.48;99686.41;4994187;28;20030;-81
2023/02/23 06:46:47;;;;;;;16.05;11.48;;;;;;;8.41;58.65;99672.72;4993774;28;20109;-83
2023/02/23 06:49:13;;;;;;;17.17;11.82;;;;;;;8.86;58.42;99725.75;4994288;28;20129;-82
2023/02/23 06:51:38;;;;;;;15.10;10.13;;;;;;;8.12;58.15;99621.28;4994216;28;20030;-81
2023/02/23 06:54:03;;;;;;;17.50;10.68;;;;;;;8.22;58.56;99629.06;4994151;28;20026;-82
2023/02/23 06:56:29;;;;;;;16.52;12.20;;;;;;;7.70;58.62;99547.72;4992663;28;20427;-81
2023/02/23 06:58:54;;;;;;;16.27;9.55;;;;;;;8.81;58.68;99733.31;4993898;28;20057;-82
2023/02/23 07:01:20;;;;;;;23.15;12.77;;;;;;;8.85;58.55;99747.81;4990076;28;20522;-83
2023/02/23 07:03:46;;;;;;;17.45;10.30;;;;;;;8.88;58.14;99731.69;4985594;28;20035;-83
2023/02/23 07:06:11;;;;;;;15.85;9.90;;;;;;;8.21;58.32;99630.88;4991371;28;20037;-82
2023/02/23 07:08:37;;;;;;;17.77;10.60;;;;;;;8.30;57.96;99650.13;4975794;28;20033;-83
2023/02/23 07:11:12;;;;;;;18.80;12.40;;;;;;;8.63;58.39;99695.78;4989467;28;20543;-82
2023/02/23 07:13:39;;;;;;;19.98;12.60;;;;;;;8.19;57.91;99630.22;4993574;28;20511;-83
2023/02/23 07:16:06;;;;;;;16.60;12.13;;;;;;;7.73;58.09;99551.84;4992647;28;20027;-83
2023/02/23 07:18:31;;;;;;;15.55;9.20;;;;;;;8.01;57.92;99589.22;4995263;28;20037;-83
2023/02/23 07:20:56;;;;;;;13.90;9.10;;;;;;;8.31;58.29;99630.72;5001070;28;20408;-83
2023/02/23 07:23:22;;;;;;;15.23;8.90;;;;;;;9.00;57.70;99736.66;4992293;28;20042;-83
2023/02/23 07:25:52;;;;;;;14.07;8.82;;;;;;;9.01;58.02;99765.47;5012781;28;20034;-83
2023/02/23 07:28:18;;;;;;;19.25;9.23;;;;;;;8.52;57.92;99652.19;5012066;28;20033;-83
2023/02/23 07:30:43;;;;;;;14.95;10.88;;;;;;;9.10;57.88;99737.34;4995868;28;20408;-84
2023/02/23 07:33:09;;;;;;;15.18;10.68;;;;;;;8.84;57.46;99709.31;4991162;28;20026;-82
2023/02/23 07:35:34;;;;;;;15.73;10.30;;;;;;;7.96;57.39;99553.72;5003156;28;20413;-83
2023/02/23 07:38:00;;;;;;;18.25;11.18;;;;;;;8.91;57.47;99710.31;4992421;28;20030;-83
2023/02/23 07:40:25;;;;;;;13.90;8.77;;;;;;;8.74;57.33;99684.13;4987041;28;20022;-84
2023/02/23 07:42:51;;;;;;;13.48;9.43;;;;;;;8.39;57.40;99627.31;4998344;28;20029;-83
2023/02/23 07:45:17;;;;;;;15.00;11.45;;;;;;;8.63;57.74;99663.38;5012201;28;20022;-84
2023/02/23 07:47:43;;;;;;;16.90;11.80;;;;;;;8.42;57.81;99674.34;5006464;28;20414;-82
2023/02/23 07:50:11;;;;;;;15.93;11.30;;;;;;;8.64;57.95;99689.53;4999738;28;20026;-83
2023/02/23 07:52:39;;;;;;;15.25;11.18;;;;;;;8.89;57.63;99716.72;4994188;28;20034;-81
2023/02/23 07:55:05;;;;;;;18.15;12.68;;;;;;;8.93;57.77;99719.88;4995725;28;20026;-84
2023/02/23 07:57:31;;;;;;;17.25;12.75;;;;;;;8.34;58.40;99627.81;4992287;28;20030;-83
2023/02/23 07:59:56;;;;;;;17.20;12.07;;;;;;;8.48;58.50;99669.28;4973369;28;20576;-84
2023/02/23 08:02:22;;;;;;;19.65;13.30;;;;;;;8.29;58.11;99609.84;4991785;28;20041;-84
2023/02/23 08:04:47;;;;;;;20.20;14.15;;;;;;;8.56;58.72;99666.66;4993977;28;20030;-84
2023/02/23 08:07:13;;;;;;;19.70;13.77;;;;;;;8.77;59.23;99696.97;5012154;28;20454;-84
2023/02/23 08:09:38;;;;;;;25.20;15.05;;;;;;;8.84;58.95;99711.94;5011911;28;20018;-84
2023/02/23 08:12:04;;;;;;;25.33;14.27;;;;;;;9.20;58.99;99751.16;5011808;28;20029;-84
2023/02/23 08:14:30;;;;;;;23.98;15.02;;;;;;;9.44;58.63;99772.25;5004200;28;20023;-83
2023/02/23 08:16:55;;;;;;;27.02;17.00;;;;;;;9.08;59.08;99736.69;4990228;28;20038;-83
2023/02/23 08:19:21;;;;;;;22.60;16.08;;;;;;;9.08;58.67;99723.50;4976809;28;20419;-82
2023/02/23 08:21:48;;;;;;;27.35;17.77;;;;;;;9.05;58.92;99737.81;4992421;28;20057;-84
2023/02/23 08:24:14;;;;;;;25.70;17.13;;;;;;;9.32;59.09;99765.66;4993974;28;20092;-84
2023/02/23 08:26:40;;;;;;;24.25;16.58;;;;;;;9.44;59.33;99784.59;4992720;28;20026;-83
2023/02/23 08:29:05;;;;;;;32.83;17.77;;;;;;;8.47;59.24;99616.81;4978448;28;20055;-82
2023/02/23 08:31:31;;;;;;;28.88;16.50;;;;;;;8.66;60.08;99686.75;5009235;28;20022;-84
2023/02/23 08:33:57;;;;;;;27.30;17.02;;;;;;;8.34;59.84;99643.59;5009527;28;20529;-86
2023/02/23 08:36:22;;;;;;;26.10;16.45;;;;;;;8.76;60.33;99732.16;5009867;28;20022;-84
2023/02/23 08:38:48;;;;;;;28.08;20.25;;;;;;;8.88;60.13;99720.34;5008255;28;20471;-84
2023/02/23 08:41:13;;;;;;;27.30;17.02;;;;;;;8.71;60.02;99679.19;5009569;28;20113;-84
2023/02/23 08:43:39;;;;;;;26.77;17.60;;;;;;;8.58;60.14;99648.06;5010631;28;20026;-84
2023/02/23 08:46:07;;;;;;;28.00;18.92;;;;;;;9.17;60.24;99772.56;5012366;28;20053;-84
2023/02/23 08:48:33;;;;;;;28.08;17.50;;;;;;;9.42;60.11;99783.94;5011031;28;20026;-84
2023/02/23 08:50:59;;;;;;;26.00;16.88;;;;;;;8.90;59.97;99703.38;5011929;28;20038;-83
2023/02/23 08:53:26;;;;;;;30.33;18.83;;;;;;;9.24;60.02;99747.22;5011498;28;20199;-83
2023/02/23 08:56:02;;;;;;;31.02;19.52;;;;;;;9.53;60.87;99789.72;5009631;28;20034;-81
2023/02/23 08:58:32;;;;;;;31.38;20.77;;;;;;;8.63;60.42;99643.13;5010102;28;20030;-81
2023/02/23 09:00:58;;;;;;;35.08;21.88;;;;;;;9.58;60.25;99781.31;4988603;28;20042;-82
2023/02/23 09:03:25;;;;;;;31.05;20.27;;;;;;;9.45;60.22;99760.72;4985195;28;20033;-80
2023/02/23 09:05:51;;;;;;;32.55;21.52;;;;;;;9.30;60.33;99725.47;5007726;28;20165;-82
2023/02/23 09:08:17;;;;;;;30.98;22.67;;;;;;;9.41;59.81;99733.06;4972355;28;20030;-81
2023/02/23 09:10:45;;;;;;;32.90;21.20;;;;;;;8.99;60.25;99709.50;4972571;28;20026;-82
2023/02/23 09:13:11;;;;;;;33.45;21.33;;;;;;;9.77;60.14;99795.97;4997708;28;20026;-83
2023/02/23 09:15:38;;;;;;;30.75;21.50;;;;;;;9.78;60.27;99793.19;5006666;28;20039;-82
2023/02/23 09:18:05;;;;;;;30.45;20.98;;;;;;;9.74;60.33;99791.03;4993632;28;20037;-83
2023/02/23 09:20:30;;;;;;;33.67;22.42;;;;;;;9.49;60.40;99737.50;4991723;28;20026;-82
2023/02/23 09:22:55;;;;;;;34.15;23.55;;;;;;;9.30;60.13;99698.31;4991403;28;20066;-82
2023/02/23 09:25:22;;;;;;;35.50;22.77;;;;;;;10.03;60.08;99790.50;4991254;28;20030;-82
2023/02/23 09:27:48;;;;;;;39.13;26.15;;;;;;;10.01;59.62;99769.56;5004463;28;20026;-83
2023/02/23 09:30:19;;;;;;;34.97;22.15;;;;;;;10.12;59.97;99784.22;4989439;28;20062;-82
2023/02/23 09:32:49;;;;;;;45.28;29.98;;;;;;;10.15;59.48;99779.41;4989967;28;20034;-82
2023/02/23 09:35:16;;;;;;;51.70;31.52;;;;;;;9.95;59.76;99743.03;4986757;28;20043;-84
2023/02/23 09:37:53;;;;;;;57.38;32.45;;;;;;;9.71;60.15;99699.91;4992124;28;20026;-84
2023/02/23 09:40:26;;;;;;;48.88;31.38;;;;;;;9.05;59.73;99602.69;4985516;28;20030;-82
2023/02/23 09:42:59;;;;;;;54.72;33.58;;;;;;;10.36;59.62;99791.25;4976554;28;20045;-83
2023/02/23 09:45:54;;;;;;;51.85;32.42;;;;;;;10.17;59.35;99745.78;4987443;28;20032;-81
2023/02/23 09:48:22;;;;;;;73.18;41.15;;;;;;;10.45;59.08;99788.44;4975214;28;20106;-83
2023/02/23 09:50:51;;;;;;;72.40;40.33;;;;;;;9.61;59.69;99669.44;4972062;28;20500;-82
2023/02/23 09:53:42;;;;;;;77.82;41.72;;;;;;;10.64;59.38;99797.78;4979776;28;20407;-82
2023/02/23 09:56:16;;;;;;;108.63;50.10;;;;;;;10.03;59.41;99698.16;4976447;28;20547;-82
2023/02/23 09:58:42;;;;;;;119.88;51.72;;;;;;;9.94;58.90;99681.56;4974197;28;20027;-82
2023/02/23 10:01:25;;;;;;;124.57;56.45;;;;;;;10.67;59.42;99786.03;4975568;28;20034;-81
2023/02/23 10:04:07;;;;;;;124.22;55.08;;;;;;;10.44;59.61;99749.03;4979222;28;20030;-83
2023/02/23 10:06:33;;;;;;;105.78;50.22;;;;;;;10.48;58.74;99760.88;4991823;28;20093;-82
2023/02/23 10:09:25;;;;;;;97.45;45.13;;;;;;;10.19;59.45;99714.75;4985439;28;20165;-82
2023/02/23 10:12:23;;;;;;;85.53;40.38;;;;;;;10.64;59.52;99773.19;4982097;28;20030;-82
2023/02/23 10:15:05;;;;;;;84.65;41.75;;;;;;;10.44;59.59;99741.09;4977147;28;20080;-84
2023/02/23 10:18:02;;;;;;;88.10;43.95;;;;;;;10.72;60.16;99784.53;4990291;28;20081;-83
2023/02/23 10:20:40;;;;;;;87.72;41.95;;;;;;;10.79;60.23;99780.19;4993813;28;20077;-83
2023/02/23 10:23:14;;;;;;;68.25;36.10;;;;;;;10.82;60.29;99771.91;4987961;28;20053;-82
2023/02/23 10:25:45;;;;;;;67.55;37.30;;;;;;;10.74;59.26;99742.91;4982466;28;20030;-83
2023/02/23 10:28:20;;;;;;;62.23;35.23;;;;;;;10.92;60.53;99776.97;4981022;28;20040;-82
2023/02/23 10:30:47;;;;;;;63.53;34.60;;;;;;;10.66;59.76;99739.50;4984063;28;20038;-83
2023/02/23 10:33:15;;;;;;;57.40;33.20;;;;;;;10.19;60.18;99648.78;4994996;28;20023;-82
2023/02/23 10:35:42;;;;;;;54.38;33.70;;;;;;;11.07;60.84;99764.66;4975069;28;20045;-82
2023/02/23 10:38:13;;;;;;;50.95;31.42;;;;;;;10.64;59.85;99710.63;4978763;28;22254;-82
2023/02/23 10:40:40;;;;;;;61.83;34.90;;;;;;;11.14;60.47;99760.31;4993000;28;20038;-84
2023/02/23 10:43:05;;;;;;;63.05;36.20;;;;;;;10.26;59.59;99619.94;4991268;28;20038;-82
2023/02/23 10:45:38;;;;;;;60.20;33.97;;;;;;;11.32;60.39;99767.16;4982942;28;20384;-82
2023/02/23 10:48:12;;;;;;;59.33;36.78;;;;;;;11.11;59.87;99721.03;4992578;28;20038;-82
2023/02/23 10:50:39;;;;;;;66.68;43.38;;;;;;;11.48;59.61;99760.91;4977080;28;20064;-83
2023/02/23 10:53:25;;;;;;;59.05;38.28;;;;;;;11.24;60.36;99735.50;4982001;28;20037;-82
2023/02/23 10:56:21;;;;;;;62.80;39.83;;;;;;;11.51;60.00;99761.38;4987682;28;20057;-83
2023/02/23 10:58:49;;;;;;;58.90;38.45;;;;;;;11.52;59.43;99744.50;4977091;28;20084;-84
2023/02/23 11:01:40;;;;;;;59.45;38.00;;;;;;;11.18;59.85;99663.03;4999261;28;20033;-82
2023/02/23 11:04:25;;;;;;;69.18;43.03;;;;;;;11.64;59.61;99755.47;4988926;28;20038;-82
2023/02/23 11:07:04;;;;;;;56.03;35.33;;;;;;;11.89;59.30;99754.28;4992623;28;20023;-84
2023/02/23 11:09:32;;;;;;;55.33;35.17;;;;;;;11.09;59.36;99624.44;4990704;28;20459;-83
2023/02/23 11:12:28;;;;;;;57.70;33.55;;;;;;;11.92;59.55;99747.81;4991116;28;20037;-83
2023/02/23 11:14:57;;;;;;;54.83;34.38;;;;;;;11.98;59.44;99752.38;4982272;28;20046;-83
2023/02/23 11:17:35;;;;;;;51.38;33.20;;;;;;;12.05;59.53;99740.88;4997392;28;20060;-82
2023/02/23 11:20:17;;;;;;;60.13;37.70;;;;;;;12.09;59.60;99750.09;4991610;28;20057;-82
2023/02/23 11:22:43;;;;;;;56.78;36.28;;;;;;;12.02;58.84;99741.25;4990736;28;20069;-82
2023/02/23 11:25:28;;;;;;;58.05;37.63;;;;;;;10.62;59.27;99493.47;4984018;28;20022;-83
2023/02/23 11:27:55;;;;;;;61.95;41.60;;;;;;;11.55;59.34;99653.44;4984639;28;20467;-82
2023/02/23 11:30:28;;;;;;;51.63;34.17;;;;;;;11.02;59.27;99560.09;4980120;28;20046;-82
2023/02/23 11:33:08;;;;;;;58.90;36.03;;;;;;;11.18;59.32;99546.75;4984236;28;20399;-83
2023/02/23 11:35:34;;;;;;;57.58;35.65;;;;;;;12.05;59.43;99687.97;4990277;28;20499;-83
2023/02/23 11:38:14;;;;;;;50.20;31.88;;;;;;;11.96;58.86;99672.38;4994006;28;20120;-83
2023/02/23 11:40:40;;;;;;;53.67;36.95;;;;;;;11.66;59.42;99637.94;4984687;28;20033;-82
2023/02/23 11:43:15;;;;;;;52.35;34.20;;;;;;;11.90;59.49;99671.28;4989204;28;20011;-82
2023/02/23 11:45:47;;;;;;;52.42;33.17;;;;;;;12.06;59.75;99710.78;4989551;28;20487;-83
2023/02/23 11:48:27;;;;;;;55.10;37.70;;;;;;;12.34;59.79;99726.00;4992645;28;20499;-82
2023/02/23 11:50:54;;;;;;;42.90;30.67;;;;;;;12.08;59.51;99689.41;4994214;28;20089;-82
2023/02/23 11:53:27;;;;;;;45.25;30.45;;;;;;;12.39;59.89;99720.97;4992220;28;20121;-83
2023/02/23 11:55:58;;;;;;;52.60;33.75;;;;;;;12.26;59.62;99718.97;4990935;28;20022;-82
2023/02/23 11:58:29;;;;;;;41.28;29.23;;;;;;;12.40;59.33;99738.47;4982537;28;20030;-82
2023/02/23 12:01:00;;;;;;;45.05;34.55;;;;;;;12.34;59.19;99732.09;4977962;28;20026;-82
2023/02/23 12:03:30;;;;;;;44.70;34.60;;;;;;;12.52;59.45;99729.06;4991364;28;20032;-82
2023/02/23 12:05:58;;;;;;;45.67;31.92;;;;;;;12.57;59.27;99731.16;4991131;28;20459;-82
2023/02/23 12:08:39;;;;;;;41.85;26.73;;;;;;;12.59;58.70;99726.47;4990757;28;20025;-82
2023/02/23 12:11:13;;;;;;;42.95;27.42;;;;;;;12.49;59.09;99733.91;4990872;28;20530;-83
2023/02/23 12:13:44;;;;;;;41.92;29.77;;;;;;;12.28;59.44;99687.00;4977235;28;20433;-82
2023/02/23 12:16:09;;;;;;;47.80;32.33;;;;;;;12.34;58.93;99695.03;4981981;28;20519;-82
2023/02/23 12:18:48;;;;;;;42.33;29.13;;;;;;;12.54;59.20;99724.41;4992179;28;20348;-82
2023/02/23 12:21:37;;;;;;;43.72;28.30;;;;;;;12.18;59.46;99679.38;4993750;28;20034;-82
2023/02/23 12:24:24;;;;;;;42.22;30.33;;;;;;;11.97;59.66;99629.84;4973081;28;20471;-81
2023/02/23 12:27:11;;;;;;;42.25;30.23;;;;;;;12.66;59.31;99744.13;4990450;28;20041;-81
2023/02/23 12:29:59;;;;;;;37.55;27.88;;;;;;;12.08;59.41;99637.31;4984812;28;20072;-82
2023/02/23 12:32:40;;;;;;;34.88;25.25;;;;;;;12.72;58.90;99743.38;4993781;28;20084;-81
2023/02/23 12:35:27;;;;;;;31.83;24.10;;;;;;;12.67;59.53;99724.56;4993413;28;20230;-81
2023/02/23 12:38:05;;;;;;;35.50;28.17;;;;;;;12.25;59.02;99659.09;4990233;28;20089;-81
2023/02/23 12:40:34;;;;;;;34.63;24.08;;;;;;;12.52;59.31;99699.09;4991840;28;20109;-81
2023/02/23 12:43:22;;;;;;;33.13;25.42;;;;;;;12.00;58.91;99613.59;4986522;28;20025;-81
2023/02/23 12:45:56;;;;;;;27.75;21.90;;;;;;;12.57;59.01;99700.19;4985556;28;20101;-81
2023/02/23 12:48:46;;;;;;;27.75;20.27;;;;;;;12.83;59.74;99739.41;4986591;28;20400;-81
2023/02/23 12:51:33;;;;;;;31.40;22.60;;;;;;;12.83;59.15;99739.41;4977947;28;20034;-81
2023/02/23 12:53:59;;;;;;;28.48;20.23;;;;;;;12.87;58.94;99734.56;4992379;28;20526;-81
2023/02/23 12:57:07;;;;;;;28.60;20.85;;;;;;;12.94;59.22;99732.81;4981588;28;20030;-82
2023/02/23 12:59:51;;;;;;;29.23;20.27;;;;;;;12.99;59.01;99738.34;4975961;28;20042;-82
2023/02/23 13:02:32;;;;;;;26.77;19.83;;;;;;;12.97;59.06;99737.72;4996283;28;20499;-82